Time;durP1;ratioP1;P1;durP2;ratioP2;P2;SDS_P1;SDS_P2;PMS_P1;PMS_P2;Temp;Humidity;BMP_temperature;BMP_pressure;BME280_temperature;BME280_humidity;BME280_pressure;Samples;Min_cycle;Max_cycle;Signal;HPM_P1;HPM_P2
2021/10/31 00:01:22;;;;;;;9.95;5.43;;;15.10;97.60;;;;;;5071480;28;20135;-61
2021/10/31 00:03:48;;;;;;;11.50;6.22;;;15.20;97.20;;;;;;5071338;28;20048;-61
2021/10/31 00:06:13;;;;;;;8.90;5.95;;;15.30;96.90;;;;;;5070377;28;20113;-61
2021/10/31 00:08:39;;;;;;;8.25;5.30;;;15.40;96.80;;;;;;5071669;28;20143;-61
2021/10/31 00:11:06;;;;;;;9.27;6.00;;;15.50;96.80;;;;;;5071890;28;20119;-61
2021/10/31 00:13:32;;;;;;;10.57;6.18;;;15.60;96.50;;;;;;5043907;28;20058;-60
2021/10/31 00:15:58;;;;;;;9.43;5.93;;;15.70;96.30;;;;;;5072969;28;20039;-60
2021/10/31 00:18:25;;;;;;;12.70;5.95;;;15.80;96.20;;;;;;5073315;28;20033;-61
2021/10/31 00:20:51;;;;;;;6.88;4.68;;;15.90;96.00;;;;;;5070852;28;20066;-61
2021/10/31 00:23:17;;;;;;;14.43;4.88;;;15.90;95.90;;;;;;5070391;28;20048;-61
2021/10/31 00:25:42;;;;;;;9.13;6.03;;;16.00;96.00;;;;;;5073404;28;20098;-61
2021/10/31 00:28:08;;;;;;;10.25;6.43;;;16.10;95.70;;;;;;5071249;28;20082;-61
2021/10/31 00:30:34;;;;;;;7.88;4.78;;;16.10;95.20;;;;;;5068446;28;20047;-61
2021/10/31 00:32:59;;;;;;;8.18;5.03;;;16.10;95.10;;;;;;5070532;28;20066;-61
2021/10/31 00:35:25;;;;;;;9.23;5.60;;;16.10;95.20;;;;;;5071076;28;20048;-61
2021/10/31 00:37:51;;;;;;;14.38;7.18;;;16.20;95.10;;;;;;5072219;28;20044;-61
2021/10/31 00:40:17;;;;;;;7.43;4.68;;;16.20;94.70;;;;;;5069419;28;20051;-61
2021/10/31 00:42:42;;;;;;;12.48;7.13;;;16.10;94.60;;;;;;5071274;28;20040;-61
2021/10/31 00:45:09;;;;;;;5.68;4.35;;;16.00;94.30;;;;;;5053131;28;20052;-61
2021/10/31 00:47:34;;;;;;;8.00;5.88;;;15.90;94.50;;;;;;5072620;28;20051;-60
2021/10/31 00:50:00;;;;;;;6.55;4.68;;;15.90;94.70;;;;;;5068095;28;20037;-61
2021/10/31 00:52:27;;;;;;;7.60;4.70;;;15.90;94.80;;;;;;5086786;28;20064;-61
2021/10/31 00:54:54;;;;;;;8.50;5.95;;;16.10;94.70;;;;;;5070802;28;20040;-61
2021/10/31 00:57:20;;;;;;;7.45;5.07;;;16.20;94.40;;;;;;5070550;28;20036;-61
2021/10/31 00:59:46;;;;;;;7.65;4.28;;;16.20;94.30;;;;;;5070612;28;20067;-61
2021/10/31 01:02:14;;;;;;;8.88;6.43;;;16.30;94.30;;;;;;5060954;28;20519;-60
2021/10/31 01:04:47;;;;;;;12.52;7.15;;;16.40;94.10;;;;;;5071641;28;20044;-61
2021/10/31 01:07:45;;;;;;;10.82;5.22;;;16.50;93.60;;;;;;5070259;28;20499;-61
2021/10/31 01:10:23;;;;;;;14.18;6.43;;;16.50;93.70;;;;;;5045747;28;20083;-61
2021/10/31 01:13:13;;;;;;;7.68;4.40;;;16.50;93.60;;;;;;5059532;28;20059;-61
2021/10/31 01:16:11;;;;;;;8.18;5.50;;;16.50;93.50;;;;;;5068799;28;20051;-60
2021/10/31 01:18:40;;;;;;;6.97;3.75;;;16.50;93.60;;;;;;5071403;28;20055;-61
2021/10/31 01:21:24;;;;;;;6.03;3.78;;;16.60;93.60;;;;;;5071960;28;20042;-60
2021/10/31 01:23:56;;;;;;;6.38;4.07;;;16.70;93.60;;;;;;5070568;28;20044;-60
2021/10/31 01:26:46;;;;;;;10.52;6.55;;;16.70;93.30;;;;;;5070503;28;20040;-60
2021/10/31 01:29:34;;;;;;;17.02;9.80;;;16.70;93.00;;;;;;5067854;28;20053;-61
2021/10/31 01:32:27;;;;;;;8.55;5.25;;;16.60;92.20;;;;;;5086685;28;20122;-60
2021/10/31 01:35:30;;;;;;;7.63;5.32;;;16.20;92.80;;;;;;5041150;28;20638;-61
2021/10/31 01:38:12;;;;;;;8.48;5.40;;;16.00;93.50;;;;;;5051695;28;20056;-60
2021/10/31 01:40:49;;;;;;;8.15;5.57;;;16.00;94.00;;;;;;5072675;28;21488;-60
2021/10/31 01:43:34;;;;;;;7.60;5.20;;;16.20;94.00;;;;;;5068092;28;20136;-60
2021/10/31 01:46:06;;;;;;;8.73;5.63;;;16.40;93.80;;;;;;5052464;28;20395;-60
2021/10/31 01:49:17;;;;;;;15.43;11.98;;;16.50;93.70;;;;;;5059300;28;20465;-60
2021/10/31 01:51:53;;;;;;;9.15;5.55;;;16.60;92.90;;;;;;5065424;28;20098;-60
2021/10/31 01:54:25;;;;;;;8.68;5.25;;;16.50;92.90;;;;;;5069323;28;20087;-60
2021/10/31 01:56:55;;;;;;;10.48;7.57;;;16.60;93.10;;;;;;5068779;28;20045;-60
2021/10/31 01:59:27;;;;;;;7.43;4.88;;;16.70;92.90;;;;;;5069761;28;20044;-60
2021/10/31 02:01:55;;;;;;;8.13;4.80;;;16.80;92.80;;;;;;5070987;28;20353;-61
2021/10/31 02:04:24;;;;;;;9.32;4.80;;;16.80;92.80;;;;;;5057173;28;20534;-60
2021/10/31 02:06:52;;;;;;;8.35;5.35;;;17.00;92.80;;;;;;5069431;28;20051;-60
2021/10/31 02:09:22;;;;;;;8.80;4.38;;;17.00;92.60;;;;;;5084160;28;20047;-60
2021/10/31 02:11:49;;;;;;;9.13;4.60;;;17.00;92.70;;;;;;5084877;28;20554;-60
2021/10/31 02:14:17;;;;;;;9.05;4.18;;;16.90;92.70;;;;;;5069756;28;20072;-61
2021/10/31 02:16:44;;;;;;;7.70;4.63;;;17.00;92.70;;;;;;5071001;28;20033;-60
2021/10/31 02:19:21;;;;;;;5.93;4.22;;;17.00;92.50;;;;;;5068483;28;20036;-60
2021/10/31 02:21:51;;;;;;;7.15;4.85;;;16.90;92.40;;;;;;5067856;28;20033;-60
2021/10/31 02:24:18;;;;;;;9.05;5.03;;;16.90;92.40;;;;;;5068625;28;20041;-61
2021/10/31 02:26:44;;;;;;;6.85;5.13;;;16.90;92.30;;;;;;5069123;28;20403;-60
2021/10/31 02:29:10;;;;;;;6.03;4.13;;;16.90;92.30;;;;;;5069073;28;20074;-61
2021/10/31 02:31:37;;;;;;;7.65;5.55;;;16.90;92.30;;;;;;5069466;28;20480;-60
2021/10/31 02:34:06;;;;;;;10.90;6.75;;;16.80;92.20;;;;;;5068363;28;20052;-61
2021/10/31 02:36:33;;;;;;;17.02;11.10;;;16.80;92.20;;;;;;5070362;28;20477;-61
2021/10/31 02:39:01;;;;;;;16.67;12.05;;;16.50;91.80;;;;;;5084577;28;20127;-61
2021/10/31 02:41:31;;;;;;;22.85;13.93;;;16.00;92.00;;;;;;5068270;28;20037;-60
2021/10/31 02:43:57;;;;;;;20.25;15.35;;;15.40;92.00;;;;;;5068625;28;20037;-61
2021/10/31 02:46:25;;;;;;;19.33;15.57;;;14.80;92.40;;;;;;5071432;28;20054;-60
2021/10/31 02:48:51;;;;;;;20.17;14.02;;;14.30;93.20;;;;;;5084703;28;20039;-60
2021/10/31 02:51:39;;;;;;;13.73;10.55;;;13.80;93.80;;;;;;5068621;28;20064;-60
2021/10/31 02:54:36;;;;;;;18.65;13.77;;;13.60;94.70;;;;;;5067338;28;20040;-60
2021/10/31 02:57:08;;;;;;;19.60;15.52;;;13.50;95.10;;;;;;5069489;28;20481;-60
2021/10/31 02:59:56;;;;;;;12.35;9.80;;;13.50;95.40;;;;;;5069046;28;20051;-61
2021/10/31 03:02:23;;;;;;;25.40;15.95;;;13.50;95.60;;;;;;5068054;28;20487;-60
2021/10/31 03:04:49;;;;;;;25.55;18.13;;;13.40;95.60;;;;;;5066646;28;20079;-60
2021/10/31 03:07:15;;;;;;;23.38;17.35;;;13.20;95.60;;;;;;5067998;28;20043;-61
2021/10/31 03:09:45;;;;;;;18.42;15.75;;;13.30;95.80;;;;;;5069184;28;20040;-60
2021/10/31 03:12:11;;;;;;;26.90;16.85;;;13.20;95.60;;;;;;5065870;28;20087;-60
2021/10/31 03:14:37;;;;;;;17.70;13.80;;;12.90;95.80;;;;;;5068628;28;20493;-60
2021/10/31 03:17:04;;;;;;;23.00;17.58;;;12.80;96.50;;;;;;5070260;28;20041;-60
2021/10/31 03:19:30;;;;;;;26.25;19.83;;;12.90;96.70;;;;;;5057313;28;20040;-60
2021/10/31 03:21:56;;;;;;;23.20;18.15;;;12.70;96.50;;;;;;5067895;28;20099;-60
2021/10/31 03:24:22;;;;;;;25.35;19.95;;;12.70;96.80;;;;;;5068659;28;20043;-60
2021/10/31 03:26:48;;;;;;;28.63;19.60;;;12.70;96.70;;;;;;5069363;28;20044;-62
2021/10/31 03:29:14;;;;;;;23.38;19.85;;;12.60;96.60;;;;;;5068440;28;20037;-60
2021/10/31 03:31:40;;;;;;;28.20;19.25;;;12.50;96.70;;;;;;5069539;28;20086;-60
2021/10/31 03:34:06;;;;;;;25.52;19.20;;;12.30;96.80;;;;;;5069938;28;20036;-61
2021/10/31 03:36:31;;;;;;;25.58;19.35;;;12.20;97.00;;;;;;5050262;28;20139;-61
2021/10/31 03:38:57;;;;;;;29.55;19.95;;;12.20;97.10;;;;;;5067181;28;20634;-60
2021/10/31 03:41:23;;;;;;;31.42;20.70;;;12.00;97.20;;;;;;5067096;28;20041;-61
2021/10/31 03:43:49;;;;;;;24.70;19.17;;;11.90;97.30;;;;;;5066443;28;20051;-60
2021/10/31 03:46:14;;;;;;;28.38;19.70;;;12.00;97.70;;;;;;5069700;28;20050;-60
2021/10/31 03:48:40;;;;;;;24.48;16.73;;;12.00;97.90;;;;;;5070425;28;20558;-60
2021/10/31 03:51:07;;;;;;;21.40;17.25;;;12.10;97.90;;;;;;5068476;28;20048;-61
2021/10/31 03:53:33;;;;;;;24.38;19.65;;;12.00;97.90;;;;;;5084072;28;20052;-60
2021/10/31 03:55:58;;;;;;;20.13;14.45;;;12.00;98.00;;;;;;5067252;28;20040;-60
2021/10/31 03:58:24;;;;;;;24.27;17.90;;;12.10;98.10;;;;;;5049777;28;20040;-62
2021/10/31 04:00:50;;;;;;;12.13;9.50;;;12.20;98.20;;;;;;5068380;28;20400;-60
2021/10/31 04:03:15;;;;;;;24.42;17.77;;;12.20;98.10;;;;;;5071839;28;20491;-61
2021/10/31 04:05:41;;;;;;;23.45;15.95;;;12.30;98.30;;;;;;5071736;28;20507;-61
2021/10/31 04:08:07;;;;;;;20.85;13.75;;;12.30;98.10;;;;;;5071855;28;20041;-61
2021/10/31 04:10:33;;;;;;;19.13;13.77;;;12.30;98.00;;;;;;5071444;28;20109;-61
2021/10/31 04:12:59;;;;;;;20.60;14.18;;;12.30;98.10;;;;;;5072424;28;20488;-60
2021/10/31 04:15:24;;;;;;;17.88;13.32;;;12.40;98.00;;;;;;5070327;28;20029;-61
2021/10/31 04:17:51;;;;;;;22.27;18.33;;;12.30;98.00;;;;;;5073964;28;20052;-61
2021/10/31 04:20:17;;;;;;;19.17;13.95;;;12.30;98.00;;;;;;5073111;28;20033;-61
2021/10/31 04:22:45;;;;;;;22.20;18.77;;;12.20;97.90;;;;;;5085035;28;20044;-61
2021/10/31 04:25:11;;;;;;;22.67;16.38;;;12.20;98.00;;;;;;5071470;28;20040;-61
2021/10/31 04:27:37;;;;;;;23.88;18.75;;;12.10;98.00;;;;;;5071194;28;20067;-61
2021/10/31 04:30:05;;;;;;;25.15;20.15;;;12.10;98.10;;;;;;5086446;28;20046;-61
2021/10/31 04:32:31;;;;;;;26.20;19.10;;;12.00;97.90;;;;;;5078684;28;20048;-61
2021/10/31 04:34:56;;;;;;;24.45;20.02;;;11.90;97.90;;;;;;5073189;28;20122;-62
2021/10/31 04:37:23;;;;;;;29.25;20.25;;;11.70;97.90;;;;;;5059466;28;20226;-61
2021/10/31 04:39:49;;;;;;;27.83;20.77;;;11.60;98.00;;;;;;5069686;28;20058;-61
2021/10/31 04:42:15;;;;;;;25.17;19.58;;;11.60;98.20;;;;;;5070143;28;20036;-61
2021/10/31 04:44:41;;;;;;;31.25;20.65;;;11.60;98.30;;;;;;5086249;28;20369;-61
2021/10/31 04:47:08;;;;;;;24.52;17.42;;;11.60;98.40;;;;;;5071250;28;20051;-61
2021/10/31 04:49:34;;;;;;;25.20;19.92;;;11.60;98.40;;;;;;5060639;28;20147;-61
2021/10/31 04:52:00;;;;;;;29.10;21.23;;;11.70;98.60;;;;;;5070241;28;20048;-61
2021/10/31 04:54:26;;;;;;;32.90;20.65;;;11.60;98.40;;;;;;5071581;28;20040;-61
2021/10/31 04:56:52;;;;;;;30.17;20.63;;;11.50;98.40;;;;;;5069268;28;20025;-61
2021/10/31 04:59:18;;;;;;;28.10;20.27;;;11.40;98.50;;;;;;5071421;28;20059;-61
2021/10/31 05:01:45;;;;;;;32.50;23.45;;;11.40;98.80;;;;;;5060321;28;20045;-61
2021/10/31 05:04:11;;;;;;;34.53;22.90;;;11.40;98.90;;;;;;5071902;28;20106;-60
2021/10/31 05:06:38;;;;;;;33.58;23.15;;;11.30;98.90;;;;;;5070748;28;20040;-61
2021/10/31 05:09:04;;;;;;;33.03;24.75;;;11.30;98.90;;;;;;5069129;28;20431;-60
2021/10/31 05:11:30;;;;;;;31.40;22.50;;;11.20;99.00;;;;;;5071202;28;20450;-61
2021/10/31 05:13:55;;;;;;;25.85;19.08;;;11.20;99.10;;;;;;5070516;28;20166;-61
2021/10/31 05:16:21;;;;;;;34.45;23.13;;;11.20;99.40;;;;;;5070242;28;20042;-61
2021/10/31 05:18:47;;;;;;;31.20;22.05;;;11.30;99.50;;;;;;5071945;28;20044;-61
2021/10/31 05:21:13;;;;;;;34.72;24.10;;;11.40;99.40;;;;;;5070234;28;20125;-61
2021/10/31 05:23:38;;;;;;;24.40;16.23;;;11.50;99.50;;;;;;5058213;28;20044;-61
2021/10/31 05:26:04;;;;;;;35.70;23.58;;;11.60;99.40;;;;;;5085786;28;20097;-61
2021/10/31 05:28:31;;;;;;;26.58;19.80;;;11.70;99.50;;;;;;5036363;28;20123;-61
2021/10/31 05:30:57;;;;;;;30.50;22.23;;;11.90;99.40;;;;;;5059074;28;20095;-61
2021/10/31 05:33:24;;;;;;;34.75;23.70;;;11.90;99.00;;;;;;5072613;28;20044;-61
2021/10/31 05:35:53;;;;;;;36.28;23.15;;;11.80;98.70;;;;;;5068525;28;20044;-61
2021/10/31 05:38:20;;;;;;;27.98;21.20;;;11.70;98.80;;;;;;5070690;28;20258;-61
2021/10/31 05:40:51;;;;;;;29.95;21.58;;;11.60;98.90;;;;;;5070569;28;20043;-61
2021/10/31 05:43:18;;;;;;;38.60;24.75;;;11.50;99.00;;;;;;5071486;28;20048;-62
2021/10/31 05:45:45;;;;;;;36.65;22.77;;;11.50;99.10;;;;;;5058328;28;20048;-63
2021/10/31 05:48:11;;;;;;;31.92;23.50;;;11.40;99.20;;;;;;5084948;28;20048;-61
2021/10/31 05:50:37;;;;;;;30.75;23.13;;;11.40;99.10;;;;;;5057829;28;20053;-62
2021/10/31 05:53:03;;;;;;;35.15;23.52;;;11.30;99.10;;;;;;5069970;28;20098;-61
2021/10/31 05:55:29;;;;;;;33.28;22.83;;;11.30;99.10;;;;;;5069523;28;20568;-61
2021/10/31 05:57:55;;;;;;;31.35;22.88;;;11.30;99.30;;;;;;5084868;28;20036;-61
2021/10/31 06:00:21;;;;;;;27.33;20.33;;;11.30;99.30;;;;;;5068638;28;20040;-61
2021/10/31 06:02:47;;;;;;;30.92;22.92;;;11.30;99.40;;;;;;5085113;28;20040;-60
2021/10/31 06:05:15;;;;;;;33.72;22.52;;;11.40;99.40;;;;;;5069584;28;20438;-61
2021/10/31 06:07:41;;;;;;;32.20;23.25;;;11.50;99.30;;;;;;5070649;28;20029;-61
2021/10/31 06:10:08;;;;;;;32.22;23.45;;;11.50;99.20;;;;;;5058136;28;20040;-62
2021/10/31 06:12:34;;;;;;;32.13;20.98;;;11.50;99.00;;;;;;5087532;28;20031;-61
2021/10/31 06:15:02;;;;;;;29.17;20.35;;;11.40;99.00;;;;;;5069966;28;20899;-62
2021/10/31 06:17:28;;;;;;;31.10;20.15;;;11.30;99.00;;;;;;5059213;28;20447;-62
2021/10/31 06:19:54;;;;;;;30.95;21.95;;;11.20;99.20;;;;;;5059459;28;20047;-62
2021/10/31 06:22:19;;;;;;;33.95;23.00;;;11.30;99.40;;;;;;5056685;28;20047;-61
2021/10/31 06:24:45;;;;;;;34.78;24.20;;;11.20;99.30;;;;;;5067193;28;20032;-62
2021/10/31 06:27:11;;;;;;;34.13;23.65;;;11.20;99.40;;;;;;5069376;28;20047;-61
2021/10/31 06:29:36;;;;;;;30.98;22.17;;;11.20;99.30;;;;;;5084042;28;20518;-61
2021/10/31 06:32:02;;;;;;;33.47;23.63;;;11.10;99.30;;;;;;5067829;28;20082;-61
2021/10/31 06:34:28;;;;;;;28.60;22.25;;;11.00;99.40;;;;;;5086004;28;20047;-61
2021/10/31 06:36:54;;;;;;;32.33;22.35;;;11.00;99.40;;;;;;5070721;28;20057;-61
2021/10/31 06:39:19;;;;;;;34.92;23.05;;;11.00;99.50;;;;;;5083876;28;20041;-61
2021/10/31 06:41:45;;;;;;;31.35;21.50;;;11.00;99.40;;;;;;5069260;28;20444;-61
2021/10/31 06:44:11;;;;;;;31.40;21.85;;;11.00;99.40;;;;;;5057602;28;20392;-61
2021/10/31 06:46:37;;;;;;;32.92;21.83;;;10.90;99.40;;;;;;5058002;28;20143;-61
2021/10/31 06:49:04;;;;;;;32.13;21.63;;;10.90;99.40;;;;;;5068809;28;20037;-62
2021/10/31 06:51:30;;;;;;;31.67;21.90;;;10.90;99.40;;;;;;5070262;28;20182;-61
2021/10/31 06:53:56;;;;;;;31.80;21.00;;;10.90;99.40;;;;;;5068963;28;20048;-62
2021/10/31 06:56:22;;;;;;;32.70;20.10;;;10.90;99.40;;;;;;5066944;28;20037;-62
2021/10/31 06:58:47;;;;;;;26.27;19.75;;;10.80;99.40;;;;;;5067647;28;20058;-69
2021/10/31 07:01:13;;;;;;;27.60;19.45;;;10.80;99.40;;;;;;5083349;28;20037;-71
2021/10/31 07:03:41;;;;;;;25.95;20.02;;;10.70;99.40;;;;;;5042146;28;20118;-72
2021/10/31 07:06:09;;;;;;;26.50;20.73;;;10.70;99.40;;;;;;5068665;28;20044;-68
2021/10/31 07:08:34;;;;;;;31.85;20.23;;;10.70;99.50;;;;;;5069241;28;20036;-68
2021/10/31 07:11:00;;;;;;;62.33;23.02;;;10.70;99.60;;;;;;5056588;28;20039;-69
2021/10/31 07:13:26;;;;;;;37.45;22.10;;;10.70;99.60;;;;;;5056369;28;20083;-70
2021/10/31 07:15:52;;;;;;;31.63;20.60;;;10.70;99.80;;;;;;5083335;28;20036;-69
2021/10/31 07:18:17;;;;;;;176.82;31.67;;;10.60;99.80;;;;;;5083252;28;20033;-69
2021/10/31 07:20:43;;;;;;;35.95;22.23;;;10.70;99.90;;;;;;5068783;28;20036;-69
2021/10/31 07:23:09;;;;;;;35.75;22.33;;;10.70;99.90;;;;;;5056786;28;20044;-69
2021/10/31 07:25:34;;;;;;;33.22;21.13;;;10.70;99.90;;;;;;5082475;28;20400;-69
2021/10/31 07:28:00;;;;;;;29.38;21.02;;;10.70;99.90;;;;;;5084666;28;20073;-69
2021/10/31 07:30:26;;;;;;;155.15;32.65;;;10.70;99.90;;;;;;5085711;28;20823;-69
2021/10/31 07:33:01;;;;;;;34.58;22.52;;;10.70;99.90;;;;;;5065945;28;20500;-68
2021/10/31 07:35:28;;;;;;;32.05;20.67;;;10.70;99.90;;;;;;5068406;28;20455;-69
2021/10/31 07:37:54;;;;;;;32.63;20.88;;;10.70;99.90;;;;;;5059604;28;20136;-69
2021/10/31 07:40:22;;;;;;;36.92;21.20;;;10.70;99.90;;;;;;5061134;28;20044;-69
2021/10/31 07:42:48;;;;;;;29.75;19.55;;;10.70;99.90;;;;;;5085860;28;20416;-69
2021/10/31 07:45:14;;;;;;;28.13;19.67;;;10.70;99.90;;;;;;5070482;28;20051;-69
2021/10/31 07:47:40;;;;;;;30.88;21.15;;;10.70;99.90;;;;;;5086859;28;20045;-69
2021/10/31 07:50:07;;;;;;;33.67;20.00;;;10.70;99.90;;;;;;5087207;28;20036;-69
2021/10/31 07:52:34;;;;;;;30.40;20.15;;;10.70;99.90;;;;;;5087574;28;20059;-69
2021/10/31 07:55:03;;;;;;;34.50;20.20;;;10.80;99.90;;;;;;5061108;28;20044;-68
2021/10/31 07:57:30;;;;;;;28.20;19.65;;;10.80;99.90;;;;;;5087394;28;20171;-68
2021/10/31 07:59:56;;;;;;;34.72;20.10;;;10.80;99.90;;;;;;5060793;28;20044;-72
2021/10/31 08:02:21;;;;;;;27.50;20.27;;;10.80;99.90;;;;;;5084269;28;20032;-71
2021/10/31 08:04:47;;;;;;;31.77;20.55;;;10.80;99.90;;;;;;5074698;28;20064;-70
2021/10/31 08:07:13;;;;;;;30.55;20.20;;;10.80;99.90;;;;;;5063419;28;20055;-70
2021/10/31 08:09:39;;;;;;;26.25;18.60;;;10.80;99.90;;;;;;5055340;28;20048;-66
2021/10/31 08:12:06;;;;;;;28.70;20.45;;;10.80;99.90;;;;;;5069477;28;21005;-67
2021/10/31 08:14:32;;;;;;;27.73;19.50;;;10.80;99.90;;;;;;5088264;28;20867;-66
2021/10/31 08:16:58;;;;;;;32.47;20.90;;;10.80;99.90;;;;;;5058661;28;20044;-66
2021/10/31 08:19:24;;;;;;;33.08;19.27;;;10.80;99.90;;;;;;5071822;28;20052;-63
2021/10/31 08:21:52;;;;;;;29.80;19.75;;;10.90;99.90;;;;;;5075252;28;20032;-63
2021/10/31 08:24:18;;;;;;;28.67;19.17;;;10.90;99.90;;;;;;5054652;28;20052;-69
2021/10/31 08:26:44;;;;;;;25.02;18.70;;;11.00;99.90;;;;;;5086492;28;20076;-64
2021/10/31 08:29:12;;;;;;;28.70;18.65;;;11.00;99.90;;;;;;5066742;28;20154;-63
2021/10/31 08:31:41;;;;;;;29.20;18.83;;;11.00;99.90;;;;;;5058686;28;20052;-64
2021/10/31 08:34:07;;;;;;;26.65;18.13;;;11.00;99.90;;;;;;5085197;28;20044;-64
2021/10/31 08:36:33;;;;;;;27.00;19.40;;;11.10;99.90;;;;;;5060589;28;20166;-64
2021/10/31 08:39:00;;;;;;;25.85;19.63;;;11.10;99.90;;;;;;5068946;28;20032;-64
2021/10/31 08:41:28;;;;;;;31.38;16.92;;;11.10;99.90;;;;;;5057921;28;20037;-62
2021/10/31 08:43:59;;;;;;;23.77;16.48;;;11.10;99.90;;;;;;5071211;28;20382;-62
2021/10/31 08:46:27;;;;;;;23.67;17.27;;;11.10;99.90;;;;;;5070228;28;20044;-62
2021/10/31 08:48:53;;;;;;;29.73;16.13;;;11.20;99.90;;;;;;5086705;28;20047;-63
2021/10/31 08:51:22;;;;;;;24.95;18.35;;;11.20;99.90;;;;;;5069548;28;20045;-64
2021/10/31 08:53:48;;;;;;;24.63;17.55;;;11.20;99.90;;;;;;5085805;28;20045;-64
2021/10/31 08:56:14;;;;;;;26.45;16.67;;;11.20;99.90;;;;;;5060315;28;20044;-63
2021/10/31 08:58:43;;;;;;;24.23;17.48;;;11.20;99.90;;;;;;5084537;28;20115;-65
2021/10/31 09:01:14;;;;;;;23.33;16.80;;;11.20;99.90;;;;;;5041858;28;20041;-64
2021/10/31 09:03:47;;;;;;;22.58;16.83;;;11.20;99.90;;;;;;5071098;28;20126;-67
2021/10/31 09:06:13;;;;;;;25.38;17.27;;;11.30;99.90;;;;;;5069589;28;20040;-66
2021/10/31 09:08:43;;;;;;;24.38;17.13;;;11.30;99.90;;;;;;5058731;28;20033;-67
2021/10/31 09:11:12;;;;;;;25.38;17.25;;;11.30;99.90;;;;;;5057890;28;20040;-66
2021/10/31 09:13:38;;;;;;;25.42;18.13;;;11.30;99.90;;;;;;5069708;28;20040;-67
2021/10/31 09:16:04;;;;;;;25.45;18.35;;;11.40;99.90;;;;;;5087082;28;20127;-66
2021/10/31 09:18:34;;;;;;;25.77;17.63;;;11.50;99.90;;;;;;5085868;28;20043;-66
2021/10/31 09:21:01;;;;;;;21.27;17.45;;;11.50;99.90;;;;;;5073272;28;20052;-67
2021/10/31 09:23:27;;;;;;;21.05;15.70;;;11.60;99.90;;;;;;5070449;28;20040;-67
2021/10/31 09:25:53;;;;;;;24.92;16.70;;;11.70;99.80;;;;;;5053074;28;20072;-66
2021/10/31 09:28:18;;;;;;;18.67;15.25;;;11.90;99.60;;;;;;5071851;28;20070;-67
2021/10/31 09:30:44;;;;;;;20.83;16.42;;;12.00;99.60;;;;;;5072404;28;20041;-66
2021/10/31 09:33:12;;;;;;;20.92;16.55;;;12.00;99.40;;;;;;5086974;28;20055;-63
2021/10/31 09:35:59;;;;;;;21.58;15.88;;;12.00;99.40;;;;;;5070747;28;20055;-63
2021/10/31 09:38:26;;;;;;;24.40;15.73;;;12.10;99.40;;;;;;5070445;28;20040;-63
2021/10/31 09:40:54;;;;;;;21.83;15.60;;;12.00;99.30;;;;;;5072397;28;20032;-63
2021/10/31 09:43:20;;;;;;;19.00;15.43;;;12.00;99.20;;;;;;5069633;28;20048;-63
2021/10/31 09:45:46;;;;;;;22.60;15.43;;;12.00;99.20;;;;;;5071065;28;20043;-63
2021/10/31 09:48:13;;;;;;;17.45;14.30;;;12.00;99.20;;;;;;5070351;28;20040;-62
2021/10/31 09:50:46;;;;;;;17.65;13.13;;;12.10;99.30;;;;;;5071634;28;20082;-63
2021/10/31 09:53:16;;;;;;;17.77;12.93;;;12.20;99.20;;;;;;5069921;28;20060;-63
2021/10/31 09:55:44;;;;;;;16.90;13.82;;;12.30;99.00;;;;;;5085592;28;20067;-62
2021/10/31 09:58:20;;;;;;;18.45;12.27;;;12.40;98.80;;;;;;5073016;28;20047;-62
2021/10/31 10:00:49;;;;;;;16.42;12.73;;;12.50;98.80;;;;;;5067846;28;20163;-63
2021/10/31 10:03:35;;;;;;;15.43;11.98;;;12.60;98.70;;;;;;5071490;28;20043;-63
2021/10/31 10:06:19;;;;;;;19.30;12.90;;;12.70;98.30;;;;;;5069655;28;20809;-64
2021/10/31 10:09:03;;;;;;;15.98;11.60;;;12.70;98.20;;;;;;5071711;28;20106;-63
2021/10/31 10:11:31;;;;;;;15.60;11.23;;;12.80;98.10;;;;;;5069787;28;20439;-63
2021/10/31 10:14:24;;;;;;;15.13;11.35;;;12.80;98.10;;;;;;5071172;28;20080;-62
2021/10/31 10:17:07;;;;;;;15.35;11.95;;;12.80;97.90;;;;;;5072402;28;20042;-67
2021/10/31 10:19:44;;;;;;;12.93;10.15;;;12.80;98.00;;;;;;5057399;28;20075;-67
2021/10/31 10:22:14;;;;;;;14.13;9.95;;;12.90;98.00;;;;;;5057532;28;20029;-66
2021/10/31 10:24:51;;;;;;;13.95;9.98;;;13.00;97.80;;;;;;5070489;28;20032;-66
2021/10/31 10:27:18;;;;;;;13.25;8.57;;;13.00;97.70;;;;;;5086672;28;20048;-66
2021/10/31 10:29:45;;;;;;;10.38;8.57;;;13.00;97.70;;;;;;5067952;28;20426;-67
2021/10/31 10:32:16;;;;;;;16.75;9.00;;;13.00;97.70;;;;;;5069938;28;20149;-66
2021/10/31 10:34:48;;;;;;;11.20;8.05;;;13.10;97.60;;;;;;5071035;28;20040;-66
2021/10/31 10:37:15;;;;;;;9.80;8.40;;;13.10;97.60;;;;;;5058563;28;20446;-67
2021/10/31 10:39:45;;;;;;;10.88;8.70;;;13.20;97.60;;;;;;5067685;28;20127;-69
2021/10/31 10:42:22;;;;;;;12.80;8.32;;;13.20;97.60;;;;;;5057508;28;20124;-68
2021/10/31 10:44:49;;;;;;;9.73;7.45;;;13.30;97.50;;;;;;5068957;28;20119;-68
2021/10/31 10:47:21;;;;;;;9.27;7.05;;;13.30;97.30;;;;;;5069425;28;20051;-66
2021/10/31 10:49:48;;;;;;;14.07;7.45;;;13.40;97.30;;;;;;5069865;28;20041;-67
2021/10/31 10:52:22;;;;;;;8.63;6.15;;;13.40;97.20;;;;;;5070609;28;20049;-70
2021/10/31 10:54:49;;;;;;;9.40;7.75;;;13.40;97.00;;;;;;5042961;28;20044;-70
2021/10/31 10:57:16;;;;;;;8.80;6.05;;;13.40;97.00;;;;;;5068093;28;20047;-68
2021/10/31 10:59:42;;;;;;;8.68;6.40;;;13.50;97.00;;;;;;5056754;28;20036;-69
2021/10/31 11:02:15;;;;;;;9.30;6.43;;;13.60;96.70;;;;;;5085605;28;20051;-67
2021/10/31 11:04:45;;;;;;;;;;;13.60;96.50;;;;;;5070365;28;20051;-66
2021/10/31 11:07:13;;;;;;;10.48;6.68;;;13.60;96.40;;;;;;5083979;28;20387;-67
2021/10/31 11:09:47;;;;;;;9.43;6.40;;;13.60;96.60;;;;;;5068127;28;20055;-67
2021/10/31 11:12:25;;;;;;;14.52;7.30;;;13.60;96.20;;;;;;5072280;28;20040;-61
2021/10/31 11:14:53;;;;;;;11.68;7.95;;;13.60;96.10;;;;;;5074440;28;20045;-61
2021/10/31 11:17:19;;;;;;;12.02;9.23;;;13.60;96.40;;;;;;5062499;28;20542;-62
2021/10/31 11:19:46;;;;;;;13.95;8.38;;;13.60;96.40;;;;;;5072105;28;20097;-61
2021/10/31 11:22:16;;;;;;;12.45;8.02;;;13.60;96.30;;;;;;5073949;28;20051;-62
2021/10/31 11:24:46;;;;;;;9.38;7.70;;;13.60;96.20;;;;;;5074790;28;20059;-62
2021/10/31 11:27:14;;;;;;;11.13;8.27;;;13.60;96.10;;;;;;5074459;28;20048;-62
2021/10/31 11:29:43;;;;;;;12.43;9.40;;;13.70;96.20;;;;;;5087421;28;20055;-61
2021/10/31 11:32:10;;;;;;;16.65;10.18;;;13.80;96.40;;;;;;5072356;28;20590;-61
2021/10/31 11:34:36;;;;;;;12.85;9.35;;;13.80;96.40;;;;;;5090976;28;20986;-62
2021/10/31 11:37:02;;;;;;;13.45;8.80;;;13.90;96.40;;;;;;5056560;28;20396;-62
2021/10/31 11:39:28;;;;;;;10.48;8.20;;;14.00;96.00;;;;;;5071432;28;20037;-61
2021/10/31 11:41:57;;;;;;;13.13;9.50;;;14.00;95.60;;;;;;5071854;28;20110;-61
2021/10/31 11:44:29;;;;;;;11.65;9.18;;;14.00;95.40;;;;;;5074163;28;20041;-61
2021/10/31 11:46:57;;;;;;;14.83;10.07;;;14.00;95.40;;;;;;5061115;28;20041;-61
2021/10/31 11:49:23;;;;;;;14.73;9.55;;;14.00;95.70;;;;;;5058733;28;20040;-61
2021/10/31 11:51:50;;;;;;;12.85;8.98;;;13.90;95.50;;;;;;5072317;28;20647;-60
2021/10/31 11:54:17;;;;;;;10.38;8.50;;;14.00;95.40;;;;;;5075260;28;20045;-61
2021/10/31 11:56:50;;;;;;;14.38;9.90;;;13.90;95.40;;;;;;5071305;28;20034;-61
2021/10/31 11:59:18;;;;;;;10.02;8.75;;;13.90;95.30;;;;;;5072254;28;20111;-60
2021/10/31 12:01:48;;;;;;;12.50;8.85;;;14.00;95.40;;;;;;5072773;28;20032;-63
2021/10/31 12:07:34;;;;;;;11.18;8.35;;;14.00;95.20;;;;;;5073570;28;20354;-63
2021/10/31 12:10:00;;;;;;;11.90;8.77;;;14.00;95.20;;;;;;5071373;28;20036;-65
2021/10/31 12:12:26;;;;;;;10.57;7.95;;;14.00;95.30;;;;;;5071966;28;20041;-67
2021/10/31 12:14:53;;;;;;;9.63;7.55;;;14.00;95.30;;;;;;5074828;28;20040;-66
2021/10/31 12:17:21;;;;;;;12.18;8.43;;;13.90;94.90;;;;;;5070095;28;20039;-67
2021/10/31 12:19:52;;;;;;;9.65;7.75;;;13.90;95.10;;;;;;5085630;28;20032;-65
2021/10/31 12:22:33;;;;;;;10.07;8.10;;;13.90;95.20;;;;;;5085448;28;20515;-66
2021/10/31 12:25:11;;;;;;;11.43;8.90;;;13.90;95.20;;;;;;5060343;28;20496;-69
2021/10/31 12:27:41;;;;;;;12.48;7.32;;;13.90;95.50;;;;;;5069945;28;20338;-67
2021/10/31 12:30:20;;;;;;;9.65;7.85;;;13.90;95.40;;;;;;5070018;28;20036;-68
2021/10/31 12:32:47;;;;;;;8.75;7.55;;;13.90;95.40;;;;;;5083798;28;20119;-69
2021/10/31 12:35:28;;;;;;;10.02;7.45;;;13.90;95.60;;;;;;5070626;28;20502;-69
2021/10/31 12:38:14;;;;;;;10.55;7.68;;;13.90;95.60;;;;;;5042559;28;20118;-70
2021/10/31 12:40:40;;;;;;;8.63;6.78;;;13.90;95.70;;;;;;5055232;28;20392;-69
2021/10/31 12:43:07;;;;;;;8.52;6.80;;;13.90;95.60;;;;;;5089095;28;20048;-73
2021/10/31 12:45:34;;;;;;;9.00;6.78;;;13.90;95.70;;;;;;5060025;28;20048;-68